createdAt,value
2023-03-04T00:01:00.678Z,99256.03
2023-03-04T00:03:26.956Z,99254.22
2023-03-04T00:05:53.115Z,99262.19
2023-03-04T00:08:19.269Z,99259.53
2023-03-04T00:10:45.459Z,99252.38
2023-03-04T00:13:11.647Z,99254.22
2023-03-04T00:15:38.286Z,99256.88
2023-03-04T00:18:04.518Z,99248.88
2023-03-04T00:20:30.779Z,99247.03
2023-03-04T00:22:56.974Z,99245.22
2023-03-04T00:25:23.132Z,99241.72
2023-03-04T00:27:49.343Z,99244.38
2023-03-04T00:30:15.611Z,99246.06
2023-03-04T00:32:41.848Z,99237.22
2023-03-04T00:35:08.039Z,99239.88
2023-03-04T00:37:34.162Z,99242.53
2023-03-04T00:40:00.273Z,99241.72
2023-03-04T00:42:26.383Z,99237.22
2023-03-04T00:44:52.685Z,99236.41
2023-03-04T00:47:18.887Z,99240.75
2023-03-04T00:49:45.120Z,99243.41
2023-03-04T00:52:11.309Z,99246.22
2023-03-04T00:54:37.434Z,99240.75
2023-03-04T00:57:03.613Z,99243.41
2023-03-04T00:59:29.757Z,99245.03
2023-03-04T01:01:55.933Z,99242.38
2023-03-04T01:04:22.038Z,99240.75
2023-03-04T01:06:48.210Z,99237.88
2023-03-04T01:09:14.359Z,99239.72
2023-03-04T01:11:40.487Z,99232.41
2023-03-04T01:14:06.626Z,99233.56
2023-03-04T01:16:32.855Z,99227.25
2023-03-04T01:18:59.010Z,99226.41
2023-03-04T01:21:25.132Z,99228.91
2023-03-04T01:23:51.224Z,99227.06
2023-03-04T01:26:17.341Z,99222.72
2023-03-04T01:28:43.469Z,99221.75
2023-03-04T01:31:09.603Z,99219.25
2023-03-04T01:33:35.765Z,99224.41
2023-03-04T01:36:01.967Z,99219.09
2023-03-04T01:38:28.086Z,99208.59
2023-03-04T01:40:54.195Z,99205.78
2023-03-04T01:43:20.333Z,99200.63
2023-03-04T01:45:46.551Z,99197.94
2023-03-04T01:48:12.641Z,99200.44
2023-03-04T01:50:38.847Z,99202.09
2023-03-04T01:53:04.955Z,99197.59
2023-03-04T01:55:31.058Z,99193.28
2023-03-04T01:57:57.253Z,99190.63
2023-03-04T02:00:23.396Z,99192.28
2023-03-04T02:02:49.512Z,99190.63
2023-03-04T02:05:15.629Z,99185.31
2023-03-04T02:07:41.771Z,99190.47
2023-03-04T02:10:07.939Z,99188.78
2023-03-04T02:12:34.094Z,99190.47
2023-03-04T02:15:00.217Z,99193.13
2023-03-04T02:17:26.693Z,99189.44
2023-03-04T02:19:52.823Z,99191.28
2023-03-04T02:22:18.955Z,99183.31
2023-03-04T02:24:45.059Z,99185.16
2023-03-04T02:27:11.223Z,99187.81
2023-03-04T02:29:37.404Z,99178.97
2023-03-04T02:32:03.517Z,99173.63
2023-03-04T02:34:29.808Z,99177.97
2023-03-04T02:36:55.921Z,99180.63
2023-03-04T02:39:22.027Z,99179.63
2023-03-04T02:41:48.456Z,99178.81
2023-03-04T02:44:14.632Z,99171.63
2023-03-04T02:46:40.778Z,99162.00
2023-03-04T02:49:06.963Z,99176.28
2023-03-04T02:51:33.075Z,99159.34
2023-03-04T02:53:59.219Z,99159.19
2023-03-04T02:56:25.385Z,99163.66
2023-03-04T02:58:51.511Z,99163.66
2023-03-04T03:01:17.620Z,99160.97
2023-03-04T03:03:43.818Z,99154.00
2023-03-04T03:06:09.927Z,99149.50
2023-03-04T03:08:36.038Z,99154.84
2023-03-04T03:11:02.172Z,99154.84
2023-03-04T03:13:28.298Z,99155.66
2023-03-04T03:15:54.430Z,99153.00
2023-03-04T03:18:20.571Z,99156.50
2023-03-04T03:20:46.671Z,99154.69
2023-03-04T03:23:12.807Z,99147.69
2023-03-04T03:25:38.922Z,99145.00
2023-03-04T03:28:05.108Z,99138.84
2023-03-04T03:30:31.244Z,99145.00
2023-03-04T03:32:57.438Z,99145.00
2023-03-04T03:35:23.558Z,99144.03
2023-03-04T03:37:49.752Z,99142.34
2023-03-04T03:40:15.978Z,99148.53
2023-03-04T03:42:42.074Z,99141.38
2023-03-04T03:45:08.183Z,99142.19
2023-03-04T03:47:34.417Z,99144.03
2023-03-04T03:50:00.547Z,99137.88
2023-03-04T03:52:26.698Z,99139.69
2023-03-04T03:54:52.902Z,99137.03
2023-03-04T03:57:19.122Z,99139.69
2023-03-04T03:59:45.215Z,99138.69
2023-03-04T04:02:11.408Z,99134.19
2023-03-04T04:04:37.555Z,99133.38
2023-03-04T04:07:03.669Z,99130.72
2023-03-04T04:09:29.987Z,99132.56
2023-03-04T04:11:56.181Z,99137.69
2023-03-04T04:14:22.317Z,99125.38
2023-03-04T04:16:48.595Z,99131.53
2023-03-04T04:19:14.813Z,99135.03
2023-03-04T04:21:40.917Z,99132.34
2023-03-04T04:24:07.031Z,99129.69
2023-03-04T04:26:33.169Z,99127.84
2023-03-04T04:28:59.363Z,99124.38
2023-03-04T04:31:25.514Z,99130.53
2023-03-04T04:33:51.611Z,99127.03
2023-03-04T04:36:17.696Z,99128.72
2023-03-04T04:38:43.816Z,99127.03
2023-03-04T04:41:09.925Z,99129.53
2023-03-04T04:43:36.109Z,99130.53
2023-03-04T04:46:02.323Z,99140.19
2023-03-04T04:48:28.739Z,99134.19
2023-03-04T04:50:54.855Z,99135.84
2023-03-04T04:53:21.184Z,99135.03
2023-03-04T04:55:47.352Z,99135.84
2023-03-04T04:58:13.491Z,99137.69
2023-03-04T05:00:39.610Z,99135.84
2023-03-04T05:03:05.760Z,99142.03
2023-03-04T05:05:31.856Z,99134.88
2023-03-04T05:07:58.006Z,99129.69
2023-03-04T05:10:24.138Z,99134.03
2023-03-04T05:12:50.283Z,99138.34
2023-03-04T05:15:16.417Z,99127.84
2023-03-04T05:17:42.561Z,99136.69
2023-03-04T05:20:08.672Z,99134.03
2023-03-04T05:22:34.785Z,99131.38
2023-03-04T05:25:00.910Z,99130.34
2023-03-04T05:27:27.038Z,99125.84
2023-03-04T05:29:53.237Z,99122.38
2023-03-04T05:32:19.494Z,99131.19
2023-03-04T05:34:45.733Z,99122.38
2023-03-04T05:37:11.842Z,99128.53
2023-03-04T05:39:37.960Z,99125.03
2023-03-04T05:42:04.060Z,99124.00
2023-03-04T05:44:30.237Z,99125.84
2023-03-04T05:46:56.384Z,99120.53
2023-03-04T05:49:22.519Z,99132.00
2023-03-04T05:51:48.724Z,99124.00
2023-03-04T05:54:14.818Z,99132.88
2023-03-04T05:56:40.939Z,99132.88
2023-03-04T05:59:07.753Z,99132.88
2023-03-04T06:01:33.952Z,99142.66
2023-03-04T06:04:00.129Z,99140.84
2023-03-04T06:06:26.368Z,99141.69
2023-03-04T06:08:52.496Z,99140.00
2023-03-04T06:11:18.608Z,99137.16
2023-03-04T06:13:44.807Z,99144.34
2023-03-04T06:16:10.961Z,99142.66
2023-03-04T06:18:37.144Z,99155.00
2023-03-04T06:21:03.303Z,99156.81
2023-03-04T06:23:29.444Z,99157.66
2023-03-04T06:25:55.560Z,99153.16
2023-03-04T06:28:21.668Z,99157.66
2023-03-04T06:30:47.779Z,99155.00
2023-03-04T06:33:13.912Z,99161.13
2023-03-04T06:35:40.118Z,99162.16
2023-03-04T06:38:06.230Z,99157.66
2023-03-04T06:40:32.337Z,99162.97
2023-03-04T06:42:58.519Z,99159.50
2023-03-04T06:45:24.631Z,99162.16
2023-03-04T06:47:50.751Z,99172.63
2023-03-04T06:50:17.080Z,99166.47
2023-03-04T06:52:43.212Z,99172.63
2023-03-04T06:55:09.321Z,99169.13
2023-03-04T06:57:35.503Z,99171.78
2023-03-04T07:00:01.608Z,99172.63
2023-03-04T07:02:27.728Z,99176.13
2023-03-04T07:04:53.872Z,99171.63
2023-03-04T07:07:20.034Z,99173.47
2023-03-04T07:09:46.153Z,99172.63
2023-03-04T07:12:12.268Z,99176.97
2023-03-04T07:14:38.489Z,99182.28
2023-03-04T07:17:04.668Z,99178.59
2023-03-04T07:19:30.801Z,99180.44
2023-03-04T07:21:56.899Z,99183.09
2023-03-04T07:24:23.014Z,99187.59
2023-03-04T07:26:49.131Z,99187.59
2023-03-04T07:29:15.317Z,99187.59
2023-03-04T07:31:41.493Z,99191.91
2023-03-04T07:34:07.662Z,99183.09
2023-03-04T07:36:33.766Z,99194.59
2023-03-04T07:38:59.877Z,99194.94
2023-03-04T07:41:26.014Z,99194.94
2023-03-04T07:43:52.182Z,99181.63
2023-03-04T07:46:18.334Z,99186.78
2023-03-04T07:48:44.505Z,99194.59
2023-03-04T07:51:10.618Z,99191.09
2023-03-04T07:53:36.831Z,99187.59
2023-03-04T07:56:02.967Z,99184.94
2023-03-04T07:58:29.069Z,99191.25
2023-03-04T08:00:55.262Z,99191.25
2023-03-04T08:03:21.392Z,99193.91
2023-03-04T08:05:47.533Z,99194.78
2023-03-04T08:08:14.640Z,99189.44
2023-03-04T08:10:42.107Z,99203.59
2023-03-04T08:13:08.213Z,99192.94
2023-03-04T08:15:34.324Z,99190.28
2023-03-04T08:18:00.454Z,99181.47
2023-03-04T08:20:26.662Z,99181.47
2023-03-04T08:22:53.024Z,99182.28
2023-03-04T08:25:19.197Z,99192.94
2023-03-04T08:27:45.365Z,99195.59
2023-03-04T08:30:11.481Z,99184.94
2023-03-04T08:32:37.817Z,99195.59
2023-03-04T08:35:04.137Z,99188.44
2023-03-04T08:37:30.312Z,99184.94
2023-03-04T08:39:56.460Z,99183.09
2023-03-04T08:42:22.621Z,99182.28
2023-03-04T08:44:48.836Z,99168.97
2023-03-04T08:47:15.053Z,99177.78
2023-03-04T08:49:41.242Z,99177.78
2023-03-04T08:52:07.370Z,99173.47
2023-03-04T08:54:34.070Z,99169.78
2023-03-04T08:57:00.223Z,99167.13
2023-03-04T08:59:26.404Z,99173.28
2023-03-04T09:01:52.621Z,99173.28
2023-03-04T09:04:18.730Z,99175.13
2023-03-04T09:06:44.838Z,99170.63
2023-03-04T09:09:11.572Z,99166.31
2023-03-04T09:11:37.678Z,99174.09
2023-03-04T09:14:03.782Z,99172.47
2023-03-04T09:16:29.977Z,99169.78
2023-03-04T09:18:56.134Z,99166.31
2023-03-04T09:21:22.229Z,99164.47
2023-03-04T09:23:48.360Z,99169.78
2023-03-04T09:26:14.457Z,99168.78
2023-03-04T09:28:40.546Z,99170.63
2023-03-04T09:31:06.677Z,99172.47
2023-03-04T09:33:32.791Z,99163.66
2023-03-04T09:35:58.951Z,99172.47
2023-03-04T09:38:25.239Z,99170.63
2023-03-04T09:40:51.366Z,99169.78
2023-03-04T09:43:17.467Z,99167.94
2023-03-04T09:45:43.595Z,99173.28
2023-03-04T09:48:09.705Z,99174.09
2023-03-04T09:50:35.837Z,99169.63
2023-03-04T09:53:01.984Z,99176.75
2023-03-04T09:55:28.108Z,99174.97
2023-03-04T09:57:54.265Z,99173.13
2023-03-04T10:00:20.646Z,99173.13
2023-03-04T10:02:46.792Z,99161.66
2023-03-04T10:05:12.900Z,99170.47
2023-03-04T10:07:39.006Z,99170.47
2023-03-04T10:10:05.124Z,99177.63
2023-03-04T10:12:31.244Z,99170.47
2023-03-04T10:14:57.365Z,99172.09
2023-03-04T10:17:23.519Z,99166.78
2023-03-04T10:19:49.667Z,99164.94
2023-03-04T10:22:15.847Z,99162.28
2023-03-04T10:24:41.949Z,99166.78
2023-03-04T10:27:08.078Z,99160.63
2023-03-04T10:29:34.204Z,99158.78
2023-03-04T10:32:00.561Z,99158.78
2023-03-04T10:34:26.795Z,99164.13
2023-03-04T10:36:53.289Z,99165.13
2023-03-04T10:39:19.382Z,99156.13
2023-03-04T10:41:45.620Z,99161.44
2023-03-04T10:44:11.814Z,99163.94
2023-03-04T10:46:38.091Z,99162.28
2023-03-04T10:49:04.209Z,99164.13
2023-03-04T10:51:30.337Z,99156.13
2023-03-04T10:53:56.429Z,99161.28
2023-03-04T10:56:22.553Z,99157.81
2023-03-04T10:58:48.678Z,99153.31
2023-03-04T11:01:14.884Z,99141.81
2023-03-04T11:03:41.078Z,99146.28
2023-03-04T11:06:07.271Z,99141.81
2023-03-04T11:08:33.387Z,99141.81
2023-03-04T11:10:59.486Z,99136.50
2023-03-04T11:13:25.695Z,99138.31
2023-03-04T11:15:51.835Z,99139.97
2023-03-04T11:18:18.023Z,99140.81
2023-03-04T11:20:44.149Z,99143.47
2023-03-04T11:23:10.244Z,99139.78
2023-03-04T11:25:36.338Z,99137.31
2023-03-04T11:28:02.472Z,99138.97
2023-03-04T11:30:28.618Z,99130.97
2023-03-04T11:32:54.760Z,99138.16
2023-03-04T11:35:54.199Z,99129.34
2023-03-04T11:38:20.329Z,99132.00
2023-03-04T11:40:46.433Z,99127.50
2023-03-04T11:43:12.616Z,99126.47
2023-03-04T11:45:38.764Z,99121.16
2023-03-04T11:48:04.936Z,99118.47
2023-03-04T11:50:31.088Z,99120.31
2023-03-04T11:52:57.208Z,99107.81
2023-03-04T11:55:23.317Z,99102.50
2023-03-04T11:57:49.439Z,99109.50
2023-03-04T12:00:15.585Z,99097.19
2023-03-04T12:02:41.691Z,99101.53
2023-03-04T12:05:08.326Z,99102.50
2023-03-04T12:07:34.478Z,99100.50
2023-03-04T12:10:00.685Z,99102.34
2023-03-04T12:12:26.830Z,99097.84
2023-03-04T12:14:52.942Z,99086.38
2023-03-04T12:17:19.227Z,99089.03
2023-03-04T12:19:45.363Z,99082.88
2023-03-04T12:22:11.502Z,99081.84
2023-03-04T12:24:37.893Z,99073.03
2023-03-04T12:27:04.047Z,99078.38
2023-03-04T12:29:30.142Z,99078.38
2023-03-04T12:31:56.286Z,99072.06
2023-03-04T12:34:22.487Z,99079.19
2023-03-04T12:36:48.594Z,99067.72
2023-03-04T12:39:14.709Z,99070.22
2023-03-04T12:41:40.817Z,99072.06
2023-03-04T12:44:06.916Z,99060.56
2023-03-04T12:46:33.076Z,99063.22
2023-03-04T12:48:59.243Z,99054.25
2023-03-04T12:51:25.341Z,99048.91
2023-03-04T12:53:51.467Z,99042.75
2023-03-04T12:56:17.617Z,99043.59
2023-03-04T12:58:43.711Z,99035.75
2023-03-04T13:01:09.811Z,99035.59
2023-03-04T13:03:35.937Z,99032.09
2023-03-04T13:06:02.026Z,99035.59
2023-03-04T13:08:28.130Z,99039.06
2023-03-04T13:10:54.813Z,99028.44
2023-03-04T13:13:21.108Z,99027.59
2023-03-04T13:15:47.225Z,99027.41
2023-03-04T13:18:13.898Z,99029.25
2023-03-04T13:20:39.986Z,99023.91
2023-03-04T13:23:06.102Z,99025.59
2023-03-04T13:25:32.215Z,99031.09
2023-03-04T13:27:58.308Z,99029.25
2023-03-04T13:30:24.488Z,99026.59
2023-03-04T13:32:50.614Z,99018.59
2023-03-04T13:35:16.841Z,99025.75
2023-03-04T13:37:43.034Z,99027.59
2023-03-04T13:40:09.161Z,99021.44
2023-03-04T13:42:35.276Z,99015.09
2023-03-04T13:45:01.373Z,99017.78
2023-03-04T13:47:27.534Z,99014.28
2023-03-04T13:49:53.637Z,99008.13
2023-03-04T13:52:19.753Z,99008.97
2023-03-04T13:54:45.880Z,99001.78
2023-03-04T13:57:11.986Z,99001.78
2023-03-04T13:59:38.070Z,99006.28
2023-03-04T14:02:04.221Z,99005.28
2023-03-04T14:04:30.413Z,99008.75
2023-03-04T14:06:56.646Z,98989.28
2023-03-04T14:09:22.822Z,98991.13
2023-03-04T14:11:49.030Z,98988.31
2023-03-04T14:14:15.158Z,98985.81
2023-03-04T14:16:41.318Z,98990.13
2023-03-04T14:19:07.429Z,98982.13
2023-03-04T14:21:33.552Z,98987.44
2023-03-04T14:23:59.673Z,98976.81
2023-03-04T14:26:25.784Z,98982.13
2023-03-04T14:28:51.898Z,98979.47
2023-03-04T14:31:18.091Z,98972.50
2023-03-04T14:33:44.233Z,98966.16
2023-03-04T14:36:10.334Z,98978.47
2023-03-04T14:38:36.452Z,98981.13
2023-03-04T14:41:02.577Z,98975.81
2023-03-04T14:43:28.691Z,98968.81
2023-03-04T14:45:54.861Z,98968.81
2023-03-04T14:48:20.965Z,98960.81
2023-03-04T14:50:47.058Z,98968.81
2023-03-04T14:53:13.177Z,98952.00
2023-03-04T14:55:39.291Z,98952.84
2023-03-04T14:58:05.409Z,98950.16
2023-03-04T15:00:31.550Z,98950.16
2023-03-04T15:02:57.647Z,98952.84
2023-03-04T15:05:26.312Z,98941.19
2023-03-04T15:07:52.689Z,98940.38
2023-03-04T15:10:18.788Z,98943.84
2023-03-04T15:12:44.879Z,98936.84
2023-03-04T15:15:11.027Z,98943.84
2023-03-04T15:17:37.122Z,98935.88
2023-03-04T15:20:03.240Z,98925.38
2023-03-04T15:22:29.379Z,98930.53
2023-03-04T15:24:55.466Z,98929.72
2023-03-04T15:27:21.568Z,98919.06
2023-03-04T15:29:47.718Z,98917.22
2023-03-04T15:32:13.856Z,98919.88
2023-03-04T15:34:39.983Z,98914.56
2023-03-04T15:37:06.150Z,98921.53
2023-03-04T15:39:32.284Z,98920.69
2023-03-04T15:41:58.395Z,98929.50
2023-03-04T15:44:24.510Z,98932.38
2023-03-04T15:46:50.617Z,98930.53
2023-03-04T15:49:16.721Z,98934.03
2023-03-04T15:51:42.843Z,98930.53
2023-03-04T15:54:08.947Z,98937.50
2023-03-04T15:56:35.036Z,98937.50
2023-03-04T15:59:01.169Z,98941.19
2023-03-04T16:01:27.326Z,98939.34
2023-03-04T16:03:53.893Z,98928.69
2023-03-04T16:06:20.081Z,98934.84
2023-03-04T16:08:46.185Z,98932.19
2023-03-04T16:11:12.276Z,98937.50
2023-03-04T16:13:38.399Z,98932.19
2023-03-04T16:16:04.585Z,98924.19
2023-03-04T16:18:30.702Z,98940.16
2023-03-04T16:20:57.468Z,98934.84
2023-03-04T16:23:23.567Z,98932.19
2023-03-04T16:25:49.702Z,98937.50
2023-03-04T16:28:15.945Z,98929.50
2023-03-04T16:30:42.075Z,98942.84
2023-03-04T16:33:08.169Z,98933.00
2023-03-04T16:35:34.365Z,98931.19
2023-03-04T16:38:00.493Z,98930.34
2023-03-04T16:40:26.609Z,98931.19
2023-03-04T16:42:52.747Z,98922.34
2023-03-04T16:45:18.843Z,98927.69
2023-03-04T16:47:44.934Z,98928.53
2023-03-04T16:50:12.949Z,98922.34
2023-03-04T16:52:39.710Z,98924.19
2023-03-04T16:55:05.819Z,98933.84
2023-03-04T16:57:31.995Z,98935.66
2023-03-04T16:59:58.101Z,98938.31
2023-03-04T17:02:24.239Z,98929.50
2023-03-04T17:04:50.354Z,98930.34
2023-03-04T17:07:16.472Z,98930.34
2023-03-04T17:09:42.591Z,98924.19
2023-03-04T17:12:08.723Z,98933.00
2023-03-04T17:14:34.853Z,98926.84
2023-03-04T17:17:00.964Z,98928.53
2023-03-04T17:19:27.074Z,98931.19
2023-03-04T17:21:53.172Z,98927.50
2023-03-04T17:24:19.279Z,98931.19
2023-03-04T17:26:45.412Z,98926.84
2023-03-04T17:29:11.571Z,98938.31
2023-03-04T17:31:37.687Z,98937.50
2023-03-04T17:34:03.870Z,98936.53
2023-03-04T17:36:29.991Z,98943.66
2023-03-04T17:38:56.091Z,98938.31
2023-03-04T17:41:22.214Z,98944.50
2023-03-04T17:43:48.319Z,98935.66
2023-03-04T17:46:14.440Z,98939.34
2023-03-04T17:48:40.598Z,98943.66
2023-03-04T17:51:06.700Z,98938.31
2023-03-04T17:53:32.810Z,98944.50
2023-03-04T17:55:58.931Z,98939.19
2023-03-04T17:58:25.036Z,98939.34
2023-03-04T18:00:51.172Z,98939.34
2023-03-04T18:03:17.315Z,98937.50
2023-03-04T18:05:43.442Z,98933.84
2023-03-04T18:08:09.553Z,98932.84
2023-03-04T18:10:35.664Z,98944.50
2023-03-04T18:13:01.770Z,98935.50
2023-03-04T18:15:27.868Z,98941.84
2023-03-04T18:17:54.015Z,98935.66
2023-03-04T18:20:20.114Z,98939.19
2023-03-04T18:22:46.198Z,98939.19
2023-03-04T18:25:12.975Z,98937.50
2023-03-04T18:27:39.099Z,98934.84
2023-03-04T18:30:07.132Z,98938.31
2023-03-04T18:32:45.729Z,98936.53
2023-03-04T18:35:23.376Z,98936.53
2023-03-04T18:37:49.699Z,98936.69
2023-03-04T18:40:15.822Z,98934.84
2023-03-04T18:42:41.942Z,98936.69
2023-03-04T18:45:08.054Z,98933.00
2023-03-04T18:47:34.166Z,98932.19
2023-03-04T18:50:00.293Z,98931.34
2023-03-04T18:52:26.419Z,98931.34
2023-03-04T18:54:52.521Z,98931.34
2023-03-04T18:57:18.672Z,98933.38
2023-03-04T18:59:44.837Z,98937.50
2023-03-04T19:02:10.966Z,98942.84
2023-03-04T19:04:37.065Z,98937.50
2023-03-04T19:07:03.189Z,98937.50
2023-03-04T19:09:29.298Z,98939.19
2023-03-04T19:11:55.384Z,98941.84
2023-03-04T19:14:21.490Z,98948.16
2023-03-04T19:16:47.662Z,98948.00
2023-03-04T19:19:13.832Z,98946.31
2023-03-04T19:21:40.170Z,98953.50
2023-03-04T19:24:06.291Z,98948.16
2023-03-04T19:26:32.391Z,98947.34
2023-03-04T19:28:58.568Z,98950.00
2023-03-04T19:31:24.717Z,98955.16
2023-03-04T19:33:50.806Z,98964.13
2023-03-04T19:36:16.941Z,98959.63
2023-03-04T19:38:43.086Z,98957.81
2023-03-04T19:41:09.194Z,98954.31
2023-03-04T19:43:35.386Z,98964.13
2023-03-04T19:46:01.670Z,98964.13
2023-03-04T19:48:27.838Z,98958.81
2023-03-04T19:50:53.967Z,98961.47
2023-03-04T19:53:20.117Z,98956.16
2023-03-04T19:55:46.219Z,98961.47
2023-03-04T19:58:12.335Z,98959.63
2023-03-04T20:00:40.330Z,98964.13
2023-03-04T20:03:06.523Z,98966.63
2023-03-04T20:05:32.808Z,98964.13
2023-03-04T20:07:58.929Z,98957.81
2023-03-04T20:10:25.046Z,98965.81
2023-03-04T20:12:51.248Z,98966.63
2023-03-04T20:15:17.399Z,98969.31
2023-03-04T20:17:43.519Z,98963.16
2023-03-04T20:20:09.636Z,98964.13
2023-03-04T20:22:35.756Z,98964.13
2023-03-04T20:25:01.889Z,98962.31
2023-03-04T20:27:28.029Z,98955.16
2023-03-04T20:29:54.127Z,98956.16
2023-03-04T20:32:20.257Z,98948.97
2023-03-04T20:34:46.411Z,98955.31
2023-03-04T20:37:12.493Z,98956.16
2023-03-04T20:39:38.603Z,98954.50
2023-03-04T20:42:04.718Z,98958.81
2023-03-04T20:44:30.820Z,98956.16
2023-03-04T20:46:56.914Z,98958.81
2023-03-04T20:49:23.035Z,98960.50
2023-03-04T20:51:49.132Z,98960.66
2023-03-04T20:54:15.309Z,98956.97
2023-03-04T20:56:41.560Z,98955.16
2023-03-04T20:59:07.696Z,98955.97
2023-03-04T21:01:33.864Z,98959.63
2023-03-04T21:04:00.087Z,98957.81
2023-03-04T21:06:26.247Z,98951.66
2023-03-04T21:08:52.416Z,98948.16
2023-03-04T21:11:18.534Z,98956.97
2023-03-04T21:13:44.639Z,98949.84
2023-03-04T21:16:10.815Z,98947.34
2023-03-04T21:18:38.386Z,98955.16
2023-03-04T21:21:04.556Z,98953.50
2023-03-04T21:23:30.664Z,98948.16
2023-03-04T21:25:56.788Z,98958.00
2023-03-04T21:28:22.999Z,98936.69
2023-03-04T21:30:49.105Z,98940.16
2023-03-04T21:33:15.430Z,98940.16
2023-03-04T21:35:41.585Z,98943.66
2023-03-04T21:38:07.812Z,98936.53
2023-03-04T21:40:36.836Z,98941.84
2023-03-04T21:43:03.212Z,98939.19
2023-03-04T21:45:29.323Z,98933.00
2023-03-04T21:47:55.466Z,98933.19
2023-03-04T21:50:21.661Z,98932.19
2023-03-04T21:52:47.791Z,98926.03
2023-03-04T21:55:13.928Z,98932.19
2023-03-04T21:57:40.048Z,98937.50
2023-03-04T22:00:06.722Z,98929.72
2023-03-04T22:02:32.909Z,98934.03
2023-03-04T22:04:59.034Z,98930.53
2023-03-04T22:07:25.326Z,98932.38
2023-03-04T22:09:51.505Z,98928.84
2023-03-04T22:12:19.567Z,98927.88
2023-03-04T22:14:45.835Z,98920.88
2023-03-04T22:17:12.039Z,98924.38
2023-03-04T22:19:38.212Z,98919.88
2023-03-04T22:22:04.326Z,98919.06
2023-03-04T22:24:30.518Z,98912.88
2023-03-04T22:26:56.660Z,98920.88
2023-03-04T22:29:22.772Z,98913.72
2023-03-04T22:31:48.919Z,98910.22
2023-03-04T22:34:15.069Z,98919.06
2023-03-04T22:36:41.188Z,98911.25
2023-03-04T22:39:07.511Z,98907.56
2023-03-04T22:41:33.595Z,98907.56
2023-03-04T22:43:59.807Z,98910.22
2023-03-04T22:46:25.917Z,98907.56
2023-03-04T22:48:52.046Z,98914.72
2023-03-04T22:51:18.163Z,98912.06
2023-03-04T22:53:44.336Z,98912.88
2023-03-04T22:56:10.429Z,98906.72
2023-03-04T22:58:36.523Z,98911.25
2023-03-04T23:01:02.731Z,98899.75
2023-03-04T23:03:28.953Z,98904.06
2023-03-04T23:05:55.064Z,98915.53
2023-03-04T23:08:21.189Z,98905.91
2023-03-04T23:10:47.296Z,98905.91
2023-03-04T23:13:13.408Z,98904.06
2023-03-04T23:15:39.522Z,98903.25
2023-03-04T23:18:05.641Z,98895.25
2023-03-04T23:20:31.745Z,98896.28
2023-03-04T23:22:57.879Z,98895.25
2023-03-04T23:25:24.018Z,98896.06
2023-03-04T23:27:50.116Z,98894.25
2023-03-04T23:30:16.246Z,98893.63
2023-03-04T23:32:42.366Z,98895.25
2023-03-04T23:35:08.474Z,98885.41
2023-03-04T23:37:34.604Z,98885.63
2023-03-04T23:40:00.705Z,98888.28
2023-03-04T23:42:26.863Z,98882.97
2023-03-04T23:44:53.053Z,98883.78
2023-03-04T23:47:19.156Z,98889.94
2023-03-04T23:49:45.258Z,98883.78
2023-03-04T23:52:11.416Z,98882.09
2023-03-04T23:54:37.514Z,98873.94
2023-03-04T23:57:03.608Z,98875.78
2023-03-04T23:59:29.741Z,98875.78
